Lulea Sol, Sweden

11:33 PM CEST on October 23, 2014 (GMT +0200)
INORRBOT16 | Change Station
CLOSE
Current Station
Personal Weather Station
Location: LuleŚ, NORRBOTTENS LšN
Elevation: 75 ft
Nearby Weather Stations

Elev 75 ft 65.59 °N, 22.20 °E | Updated 3 minutes ago

Light Freezing Rain
Light Freezing Rain Snow
32.2 °F
Feels Like 24 °F
N
10.7
Wind Variable Wind from SSW
Gusts 15.2 mph

Today
High -- | Low -- °F
--% Chance of Precip.
Yesterday
High -- | Low -- °F
Precip. -- in
7:51 AM 4:38 PM
Waning Crescent, 0% visible
Pressure 30.09 in
Visibility 6.2 miles
Clouds Overcast 1600 ft
Windchill 24 °F
Dew Point 32 °F
Humidity 99%
Rainfall 0.00 in
Snow Depth Not available.
UV 0 out of 12
Pollen Not available.
Air Quality Not available.
Flu Activity Not available.
METAR ESPE 232120Z AUTO 15011KT 9999NDV -FZRASN OVC016/// M01/M04 Q1019

More Conditions Fewer Conditions

Pressure 30.09 in
Visibility 6.2 miles
Clouds Overcast 1600 ft
Windchill 24 °F
Dew Point 32 °F
Humidity 99%
Rainfall 0.00 in
Snow Depth Not available.
UV 0 out of 12
Pollen Not available.
Air Quality Not available.
Flu Activity Not available.
METAR ESPE 232120Z AUTO 15011KT 9999NDV -FZRASN OVC016/// M01/M04 Q1019

More Conditions Fewer Conditions

10-Day Weather Forecast

Almanac

Astronomy

Oct. 23, 2014 Rise Set
Actual Time 7:51 AM CEST 4:38 PM CEST
Civil Twilight 6:58 AM CEST 5:31 PM CEST
Nautical Twilight 5:59 AM CEST 6:30 PM CEST
Astronomical Twilight 5:01 AM CEST 7:28 PM CEST
Moon 7:00 AM CEST 4:34 PM CEST
Length of Visible Light 10h 33m
Length of Day
8h 46m
Tomorrow will be 7m 1s shorter.
Waning Crescent, 0% of the Moon is Illuminated
Today
Waning Crescent
Oct 23
New
Oct 30
First Quarter
Nov 6
Full
Nov 14
Last Quarter

Today's Extremes

Country Highs Country Lows

Community

WunderPhotos

Upload Photos

1,764,379 photos uploaded!

WunderBlogs® & News

Nearby

Snow Depth

Not available.

Earthquake Activity

City Distance Mag. Time & Date
No recent earthquake activity has been reported nearby.
Minimum magnitude displayed is 2.5.

Coastal Water Temperatures

Place Temperature
No Stations Reporting

Nearby Weather Stations